sensor_id;sensor_type;location;lat;lon;timestamp;pressure;altitude;pressure_sealevel;temperature;humidity
21824;BME280;11074;48.596;9.238;2024-01-25T00:01:11;99433.91;;;9.31;92.71
21824;BME280;11074;48.596;9.238;2024-01-25T00:03:36;99431.41;;;9.36;92.21
21824;BME280;11074;48.596;9.238;2024-01-25T00:06:02;99430.19;;;9.32;92.13
21824;BME280;11074;48.596;9.238;2024-01-25T00:08:27;99422.41;;;9.30;93.07
21824;BME280;11074;48.596;9.238;2024-01-25T00:10:53;99413.19;;;9.26;93.06
21824;BME280;11074;48.596;9.238;2024-01-25T00:13:18;99423.72;;;9.14;94.61
21824;BME280;11074;48.596;9.238;2024-01-25T00:15:43;99424.13;;;9.18;94.55
21824;BME280;11074;48.596;9.238;2024-01-25T00:18:09;99428.59;;;9.24;95.05
21824;BME280;11074;48.596;9.238;2024-01-25T00:20:34;99426.63;;;9.06;94.95
21824;BME280;11074;48.596;9.238;2024-01-25T00:22:59;99423.53;;;9.03;95.34
21824;BME280;11074;48.596;9.238;2024-01-25T00:25:24;99417.38;;;9.09;95.31
21824;BME280;11074;48.596;9.238;2024-01-25T00:27:50;99409.78;;;9.06;94.80
21824;BME280;11074;48.596;9.238;2024-01-25T00:30:15;99412.63;;;9.11;95.42
21824;BME280;11074;48.596;9.238;2024-01-25T00:32:40;99409.97;;;9.11;94.94
21824;BME280;11074;48.596;9.238;2024-01-25T00:35:06;99407.72;;;9.08;95.25
21824;BME280;11074;48.596;9.238;2024-01-25T00:37:32;99413.03;;;9.14;94.83
21824;BME280;11074;48.596;9.238;2024-01-25T00:39:57;99413.25;;;9.13;94.93
21824;BME280;11074;48.596;9.238;2024-01-25T00:42:23;99407.09;;;9.12;94.34
21824;BME280;11074;48.596;9.238;2024-01-25T00:44:49;99408.72;;;9.20;94.90
21824;BME280;11074;48.596;9.238;2024-01-25T00:47:14;99401.78;;;9.12;94.91
21824;BME280;11074;48.596;9.238;2024-01-25T00:49:40;99390.88;;;9.21;95.03
21824;BME280;11074;48.596;9.238;2024-01-25T00:52:06;99403.19;;;9.15;95.70
21824;BME280;11074;48.596;9.238;2024-01-25T00:54:31;99403.72;;;8.86;96.91
21824;BME280;11074;48.596;9.238;2024-01-25T00:56:57;99406.59;;;8.84;97.61
21824;BME280;11074;48.596;9.238;2024-01-25T00:59:23;99396.31;;;8.88;97.92
21824;BME280;11074;48.596;9.238;2024-01-25T01:01:48;99402.69;;;8.87;97.84
21824;BME280;11074;48.596;9.238;2024-01-25T01:04:15;99403.09;;;8.84;98.19
21824;BME280;11074;48.596;9.238;2024-01-25T01:06:40;99405.53;;;8.92;98.08
21824;BME280;11074;48.596;9.238;2024-01-25T01:09:06;99412.91;;;8.96;98.46
21824;BME280;11074;48.596;9.238;2024-01-25T01:11:32;99409.84;;;8.86;98.57
21824;BME280;11074;48.596;9.238;2024-01-25T01:13:57;99406.53;;;8.97;98.11
21824;BME280;11074;48.596;9.238;2024-01-25T01:16:23;99404.06;;;9.02;97.80
21824;BME280;11074;48.596;9.238;2024-01-25T01:18:48;99392.13;;;9.05;97.67
21824;BME280;11074;48.596;9.238;2024-01-25T01:21:13;99404.47;;;9.06;98.59
21824;BME280;11074;48.596;9.238;2024-01-25T01:23:38;99403.28;;;8.95;98.87
21824;BME280;11074;48.596;9.238;2024-01-25T01:26:04;99404.75;;;8.85;99.92
21824;BME280;11074;48.596;9.238;2024-01-25T01:28:29;99399.59;;;8.90;99.89
21824;BME280;11074;48.596;9.238;2024-01-25T01:30:55;99404.72;;;8.91;99.26
21824;BME280;11074;48.596;9.238;2024-01-25T01:33:20;99409.66;;;8.88;99.52
21824;BME280;11074;48.596;9.238;2024-01-25T01:35:45;99396.53;;;8.86;99.26
21824;BME280;11074;48.596;9.238;2024-01-25T01:38:11;99392.84;;;8.87;98.49
21824;BME280;11074;48.596;9.238;2024-01-25T01:40:36;99405.75;;;8.90;98.56
21824;BME280;11074;48.596;9.238;2024-01-25T01:43:02;99405.75;;;8.90;98.27
21824;BME280;11074;48.596;9.238;2024-01-25T01:45:27;99396.75;;;8.85;99.84
21824;BME280;11074;48.596;9.238;2024-01-25T01:47:54;99382.16;;;8.87;99.04
21824;BME280;11074;48.596;9.238;2024-01-25T01:50:19;99379.91;;;8.91;98.43
21824;BME280;11074;48.596;9.238;2024-01-25T01:52:46;99384.78;;;9.00;98.25
21824;BME280;11074;48.596;9.238;2024-01-25T01:55:11;99380.69;;;9.04;97.08
21824;BME280;11074;48.596;9.238;2024-01-25T01:57:37;99376.97;;;9.05;97.35
21824;BME280;11074;48.596;9.238;2024-01-25T02:00:06;99390.69;;;9.09;96.91
21824;BME280;11074;48.596;9.238;2024-01-25T02:02:33;99385.97;;;9.11;97.05
21824;BME280;11074;48.596;9.238;2024-01-25T02:04:59;99376.09;;;9.18;96.98
21824;BME280;11074;48.596;9.238;2024-01-25T02:07:24;99378.53;;;9.20;97.71
21824;BME280;11074;48.596;9.238;2024-01-25T02:09:49;99383.47;;;9.23;97.21
21824;BME280;11074;48.596;9.238;2024-01-25T02:12:17;99379.31;;;9.27;96.74
21824;BME280;11074;48.596;9.238;2024-01-25T02:14:43;99381.97;;;9.27;97.21
21824;BME280;11074;48.596;9.238;2024-01-25T02:17:08;99392.03;;;9.31;96.76
21824;BME280;11074;48.596;9.238;2024-01-25T02:19:34;99390.81;;;9.27;97.30
21824;BME280;11074;48.596;9.238;2024-01-25T02:21:59;99387.06;;;9.35;97.28
21824;BME280;11074;48.596;9.238;2024-01-25T02:24:24;99388.31;;;9.32;96.98
21824;BME280;11074;48.596;9.238;2024-01-25T02:26:50;99385.00;;;9.37;96.35
21824;BME280;11074;48.596;9.238;2024-01-25T02:29:15;99399.78;;;9.39;96.46
21824;BME280;11074;48.596;9.238;2024-01-25T02:31:40;99391.56;;;9.41;96.35
21824;BME280;11074;48.596;9.238;2024-01-25T02:34:06;99387.00;;;9.48;96.45
21824;BME280;11074;48.596;9.238;2024-01-25T02:36:31;99385.41;;;9.40;96.32
21824;BME280;11074;48.596;9.238;2024-01-25T02:38:57;99382.47;;;9.48;96.53
21824;BME280;11074;48.596;9.238;2024-01-25T02:41:22;99376.53;;;9.46;97.14
21824;BME280;11074;48.596;9.238;2024-01-25T02:43:47;99378.56;;;9.51;96.85
21824;BME280;11074;48.596;9.238;2024-01-25T02:46:13;99378.34;;;9.52;96.80
21824;BME280;11074;48.596;9.238;2024-01-25T02:48:38;99375.03;;;9.57;97.54
21824;BME280;11074;48.596;9.238;2024-01-25T02:51:03;99378.09;;;9.60;97.32
21824;BME280;11074;48.596;9.238;2024-01-25T02:53:29;99374.59;;;9.60;97.36
21824;BME280;11074;48.596;9.238;2024-01-25T02:55:54;99379.94;;;9.60;97.46
21824;BME280;11074;48.596;9.238;2024-01-25T02:58:19;99378.91;;;9.61;97.98
21824;BME280;11074;48.596;9.238;2024-01-25T03:00:45;99377.69;;;9.57;98.23
21824;BME280;11074;48.596;9.238;2024-01-25T03:03:10;99382.22;;;9.56;97.85
21824;BME280;11074;48.596;9.238;2024-01-25T03:05:36;99383.88;;;9.57;98.44
21824;BME280;11074;48.596;9.238;2024-01-25T03:08:01;99375.03;;;9.57;98.92
21824;BME280;11074;48.596;9.238;2024-01-25T03:10:26;99374.00;;;9.58;98.38
21824;BME280;11074;48.596;9.238;2024-01-25T03:12:52;99387.72;;;9.61;98.58
21824;BME280;11074;48.596;9.238;2024-01-25T03:15:17;99394.75;;;9.56;97.73
21824;BME280;11074;48.596;9.238;2024-01-25T03:17:42;99392.47;;;9.59;98.91
21824;BME280;11074;48.596;9.238;2024-01-25T03:20:09;99396.56;;;9.62;98.46
21824;BME280;11074;48.596;9.238;2024-01-25T03:22:34;99402.31;;;9.65;97.87
21824;BME280;11074;48.596;9.238;2024-01-25T03:25:00;99395.91;;;9.66;97.88
21824;BME280;11074;48.596;9.238;2024-01-25T03:27:25;99396.59;;;9.55;97.84
21824;BME280;11074;48.596;9.238;2024-01-25T03:29:50;99400.09;;;9.56;98.29
21824;BME280;11074;48.596;9.238;2024-01-25T03:32:15;99409.50;;;9.58;97.91
21824;BME280;11074;48.596;9.238;2024-01-25T03:34:41;99406.47;;;9.55;97.77
21824;BME280;11074;48.596;9.238;2024-01-25T03:37:06;99398.91;;;9.45;98.38
21824;BME280;11074;48.596;9.238;2024-01-25T03:39:32;99412.84;;;9.54;97.68
21824;BME280;11074;48.596;9.238;2024-01-25T03:41:57;99416.97;;;9.50;98.11
21824;BME280;11074;48.596;9.238;2024-01-25T03:44:22;99417.94;;;9.55;98.07
21824;BME280;11074;48.596;9.238;2024-01-25T03:46:48;99419.41;;;9.58;97.95
21824;BME280;11074;48.596;9.238;2024-01-25T03:49:13;99423.47;;;9.60;97.76
21824;BME280;11074;48.596;9.238;2024-01-25T03:51:38;99425.16;;;9.55;98.03
21824;BME280;11074;48.596;9.238;2024-01-25T03:54:03;99425.34;;;9.60;98.21
21824;BME280;11074;48.596;9.238;2024-01-25T03:56:29;99439.94;;;9.51;97.93
21824;BME280;11074;48.596;9.238;2024-01-25T03:58:54;99437.50;;;9.49;98.47
21824;BME280;11074;48.596;9.238;2024-01-25T04:01:19;99441.03;;;9.43;98.87
21824;BME280;11074;48.596;9.238;2024-01-25T04:03:45;99450.50;;;9.39;99.13
21824;BME280;11074;48.596;9.238;2024-01-25T04:06:10;99451.28;;;9.40;99.53
21824;BME280;11074;48.596;9.238;2024-01-25T04:08:35;99459.34;;;9.33;99.33
21824;BME280;11074;48.596;9.238;2024-01-25T04:11:00;99455.63;;;9.34;99.61
21824;BME280;11074;48.596;9.238;2024-01-25T04:13:26;99463.44;;;9.36;98.99
21824;BME280;11074;48.596;9.238;2024-01-25T04:15:51;99453.00;;;9.28;99.38
21824;BME280;11074;48.596;9.238;2024-01-25T04:18:16;99454.84;;;9.27;98.65
21824;BME280;11074;48.596;9.238;2024-01-25T04:20:43;99457.50;;;9.27;99.31
21824;BME280;11074;48.596;9.238;2024-01-25T04:23:08;99452.00;;;9.15;100.00
21824;BME280;11074;48.596;9.238;2024-01-25T04:25:34;99454.72;;;9.09;100.00
21824;BME280;11074;48.596;9.238;2024-01-25T04:27:59;99457.38;;;9.09;99.82
21824;BME280;11074;48.596;9.238;2024-01-25T04:30:25;99451.22;;;9.15;99.52
21824;BME280;11074;48.596;9.238;2024-01-25T04:32:50;99456.50;;;9.22;98.12
21824;BME280;11074;48.596;9.238;2024-01-25T04:35:15;99450.53;;;9.26;97.45
21824;BME280;11074;48.596;9.238;2024-01-25T04:37:41;99452.78;;;9.29;97.25
21824;BME280;11074;48.596;9.238;2024-01-25T04:40:06;99465.88;;;9.37;96.22
21824;BME280;11074;48.596;9.238;2024-01-25T04:42:32;99467.94;;;9.35;95.98
21824;BME280;11074;48.596;9.238;2024-01-25T04:44:57;99463.84;;;9.39;96.41
21824;BME280;11074;48.596;9.238;2024-01-25T04:47:22;99456.06;;;9.31;96.71
21824;BME280;11074;48.596;9.238;2024-01-25T04:49:48;99463.38;;;9.42;95.82
21824;BME280;11074;48.596;9.238;2024-01-25T04:52:13;99475.97;;;9.35;96.83
21824;BME280;11074;48.596;9.238;2024-01-25T04:54:38;99476.59;;;9.24;97.25
21824;BME280;11074;48.596;9.238;2024-01-25T04:57:04;99466.53;;;9.33;96.70
21824;BME280;11074;48.596;9.238;2024-01-25T04:59:35;99471.25;;;9.31;96.75
21824;BME280;11074;48.596;9.238;2024-01-25T05:02:00;99468.78;;;9.29;96.00
21824;BME280;11074;48.596;9.238;2024-01-25T05:04:28;99478.63;;;9.35;96.27
21824;BME280;11074;48.596;9.238;2024-01-25T05:06:54;99491.78;;;9.30;96.19
21824;BME280;11074;48.596;9.238;2024-01-25T05:09:19;99484.38;;;9.32;95.74
21824;BME280;11074;48.596;9.238;2024-01-25T05:11:44;99492.00;;;9.29;95.94
21824;BME280;11074;48.596;9.238;2024-01-25T05:14:10;99509.03;;;9.28;95.63
21824;BME280;11074;48.596;9.238;2024-01-25T05:16:35;99502.03;;;9.33;96.46
21824;BME280;11074;48.596;9.238;2024-01-25T05:19:00;99500.81;;;9.29;96.18
21824;BME280;11074;48.596;9.238;2024-01-25T05:21:26;99509.03;;;9.28;96.68
21824;BME280;11074;48.596;9.238;2024-01-25T05:23:52;99516.22;;;9.27;97.00
21824;BME280;11074;48.596;9.238;2024-01-25T05:26:17;99505.13;;;9.24;96.14
21824;BME280;11074;48.596;9.238;2024-01-25T05:28:42;99510.28;;;9.19;97.12
21824;BME280;11074;48.596;9.238;2024-01-25T05:31:08;99505.16;;;9.17;96.87
21824;BME280;11074;48.596;9.238;2024-01-25T05:33:40;99512.75;;;9.13;97.37
21824;BME280;11074;48.596;9.238;2024-01-25T05:36:06;99514.59;;;9.13;98.29
21824;BME280;11074;48.596;9.238;2024-01-25T05:38:31;99502.50;;;9.10;98.41
21824;BME280;11074;48.596;9.238;2024-01-25T05:40:57;99501.53;;;8.98;99.00
21824;BME280;11074;48.596;9.238;2024-01-25T05:43:23;99503.38;;;9.04;99.77
21824;BME280;11074;48.596;9.238;2024-01-25T05:45:49;99513.41;;;9.09;99.72
21824;BME280;11074;48.596;9.238;2024-01-25T05:48:15;99509.28;;;9.13;98.84
21824;BME280;11074;48.596;9.238;2024-01-25T05:50:40;99516.25;;;9.07;98.50
21824;BME280;11074;48.596;9.238;2024-01-25T05:53:06;99517.94;;;9.02;98.85
21824;BME280;11074;48.596;9.238;2024-01-25T05:55:31;99523.88;;;9.04;98.81
21824;BME280;11074;48.596;9.238;2024-01-25T05:57:56;99522.44;;;8.95;98.35
21824;BME280;11074;48.596;9.238;2024-01-25T06:00:22;99518.16;;;8.94;98.04
21824;BME280;11074;48.596;9.238;2024-01-25T06:02:47;99514.06;;;8.91;98.51
21824;BME280;11074;48.596;9.238;2024-01-25T06:05:14;99521.03;;;8.86;99.32
21824;BME280;11074;48.596;9.238;2024-01-25T06:07:39;99519.38;;;8.78;99.02
21824;BME280;11074;48.596;9.238;2024-01-25T06:10:06;99523.09;;;8.58;99.32
21824;BME280;11074;48.596;9.238;2024-01-25T06:12:32;99518.00;;;8.56;99.30
21824;BME280;11074;48.596;9.238;2024-01-25T06:14:57;99521.25;;;8.58;99.61
21824;BME280;11074;48.596;9.238;2024-01-25T06:17:23;99521.06;;;8.53;100.00
21824;BME280;11074;48.596;9.238;2024-01-25T06:19:48;99531.94;;;8.51;99.64
21824;BME280;11074;48.596;9.238;2024-01-25T06:22:13;99528.22;;;8.39;100.00
21824;BME280;11074;48.596;9.238;2024-01-25T06:24:38;99529.06;;;8.40;100.00
21824;BME280;11074;48.596;9.238;2024-01-25T06:27:05;99528.22;;;8.39;99.90
21824;BME280;11074;48.596;9.238;2024-01-25T06:29:30;99525.34;;;8.28;100.00
21824;BME280;11074;48.596;9.238;2024-01-25T06:31:55;99524.25;;;8.09;100.00
21824;BME280;11074;48.596;9.238;2024-01-25T06:34:21;99536.78;;;8.15;100.00
21824;BME280;11074;48.596;9.238;2024-01-25T06:36:46;99531.25;;;8.17;99.81
21824;BME280;11074;48.596;9.238;2024-01-25T06:39:12;99538.44;;;8.16;99.64
21824;BME280;11074;48.596;9.238;2024-01-25T06:41:37;99540.25;;;8.09;98.86
21824;BME280;11074;48.596;9.238;2024-01-25T06:44:02;99545.56;;;8.09;99.86
21824;BME280;11074;48.596;9.238;2024-01-25T06:46:28;99551.31;;;8.06;98.51
21824;BME280;11074;48.596;9.238;2024-01-25T06:48:53;99550.47;;;7.99;98.76
21824;BME280;11074;48.596;9.238;2024-01-25T06:51:19;99560.50;;;7.97;99.01
21824;BME280;11074;48.596;9.238;2024-01-25T06:53:44;99553.75;;;7.94;98.58
21824;BME280;11074;48.596;9.238;2024-01-25T06:56:10;99566.63;;;7.91;98.92
21824;BME280;11074;48.596;9.238;2024-01-25T06:58:35;99564.97;;;7.77;98.71
21824;BME280;11074;48.596;9.238;2024-01-25T07:01:00;99562.59;;;7.54;99.33
21824;BME280;11074;48.596;9.238;2024-01-25T07:03:26;99557.00;;;7.36;98.75
21824;BME280;11074;48.596;9.238;2024-01-25T07:05:51;99555.50;;;7.27;98.49
21824;BME280;11074;48.596;9.238;2024-01-25T07:08:16;99560.09;;;7.46;98.83
21824;BME280;11074;48.596;9.238;2024-01-25T07:10:42;99561.75;;;7.47;99.31
21824;BME280;11074;48.596;9.238;2024-01-25T07:13:08;99553.94;;;7.39;98.06
21824;BME280;11074;48.596;9.238;2024-01-25T07:15:33;99556.78;;;7.38;98.61
21824;BME280;11074;48.596;9.238;2024-01-25T07:17:59;99565.09;;;7.56;99.40
21824;BME280;11074;48.596;9.238;2024-01-25T07:20:24;99554.63;;;7.54;97.37
21824;BME280;11074;48.596;9.238;2024-01-25T07:22:49;99556.72;;;7.65;98.91
21824;BME280;11074;48.596;9.238;2024-01-25T07:25:15;99560.59;;;7.69;98.56
21824;BME280;11074;48.596;9.238;2024-01-25T07:27:44;99569.63;;;7.68;97.73
21824;BME280;11074;48.596;9.238;2024-01-25T07:30:09;99566.34;;;7.66;97.11
21824;BME280;11074;48.596;9.238;2024-01-25T07:32:35;99566.75;;;7.63;98.04
21824;BME280;11074;48.596;9.238;2024-01-25T07:35:00;99572.69;;;7.65;97.19
21824;BME280;11074;48.596;9.238;2024-01-25T07:37:26;99571.63;;;7.60;98.10
21824;BME280;11074;48.596;9.238;2024-01-25T07:39:51;99579.00;;;7.58;97.07
21824;BME280;11074;48.596;9.238;2024-01-25T07:42:16;99581.44;;;7.53;97.68
21824;BME280;11074;48.596;9.238;2024-01-25T07:44:43;99580.63;;;7.52;97.78
21824;BME280;11074;48.596;9.238;2024-01-25T07:47:08;99583.88;;;7.54;97.78
21824;BME280;11074;48.596;9.238;2024-01-25T07:49:33;99585.16;;;7.58;97.70
21824;BME280;11074;48.596;9.238;2024-01-25T07:51:59;99583.88;;;7.54;97.22
21824;BME280;11074;48.596;9.238;2024-01-25T07:54:24;99574.63;;;7.44;97.79
21824;BME280;11074;48.596;9.238;2024-01-25T07:56:50;99570.69;;;7.33;97.17
21824;BME280;11074;48.596;9.238;2024-01-25T07:59:15;99562.78;;;7.46;98.07
21824;BME280;11074;48.596;9.238;2024-01-25T08:01:40;99565.09;;;7.56;98.56
21824;BME280;11074;48.596;9.238;2024-01-25T08:04:06;99554.28;;;7.29;97.90
21824;BME280;11074;48.596;9.238;2024-01-25T08:06:31;99559.09;;;7.47;98.64
21824;BME280;11074;48.596;9.238;2024-01-25T08:08:57;99550.78;;;7.70;98.24
21824;BME280;11074;48.596;9.238;2024-01-25T08:11:22;99556.97;;;7.77;96.55
21824;BME280;11074;48.596;9.238;2024-01-25T08:13:48;99556.38;;;7.81;96.71
21824;BME280;11074;48.596;9.238;2024-01-25T08:16:14;99562.91;;;7.85;96.24
21824;BME280;11074;48.596;9.238;2024-01-25T08:18:44;99566.44;;;7.92;96.51
21824;BME280;11074;48.596;9.238;2024-01-25T08:21:11;99564.81;;;7.98;96.34
21824;BME280;11074;48.596;9.238;2024-01-25T08:23:36;99568.94;;;8.01;95.90
21824;BME280;11074;48.596;9.238;2024-01-25T08:26:01;99570.97;;;8.05;96.41
21824;BME280;11074;48.596;9.238;2024-01-25T08:28:27;99570.97;;;8.12;95.80
21824;BME280;11074;48.596;9.238;2024-01-25T08:30:52;99565.66;;;8.12;96.09
21824;BME280;11074;48.596;9.238;2024-01-25T08:33:18;99564.25;;;8.16;95.52
21824;BME280;11074;48.596;9.238;2024-01-25T08:35:43;99566.91;;;8.16;96.13
21824;BME280;11074;48.596;9.238;2024-01-25T08:38:08;99566.94;;;8.22;96.62
21824;BME280;11074;48.596;9.238;2024-01-25T08:40:34;99567.94;;;8.21;95.69
21824;BME280;11074;48.596;9.238;2024-01-25T08:42:59;99576.53;;;8.23;96.10
21824;BME280;11074;48.596;9.238;2024-01-25T08:45:24;99569.84;;;8.27;96.10
21824;BME280;11074;48.596;9.238;2024-01-25T08:47:50;99575.56;;;8.31;95.50
21824;BME280;11074;48.596;9.238;2024-01-25T08:50:16;99586.25;;;8.37;95.14
21824;BME280;11074;48.596;9.238;2024-01-25T08:52:41;99582.78;;;8.43;95.08
21824;BME280;11074;48.596;9.238;2024-01-25T08:55:07;99586.69;;;8.54;95.24
21824;BME280;11074;48.596;9.238;2024-01-25T08:57:34;99580.09;;;8.63;94.86
21824;BME280;11074;48.596;9.238;2024-01-25T09:00:00;99587.47;;;8.68;94.36
21824;BME280;11074;48.596;9.238;2024-01-25T09:02:26;99595.28;;;8.63;93.51
21824;BME280;11074;48.596;9.238;2024-01-25T09:04:52;99598.56;;;8.71;94.01
21824;BME280;11074;48.596;9.238;2024-01-25T09:07:19;99597.75;;;8.77;93.59
21824;BME280;11074;48.596;9.238;2024-01-25T09:09:44;99605.94;;;8.82;93.81
21824;BME280;11074;48.596;9.238;2024-01-25T09:12:09;99604.53;;;8.80;93.62
21824;BME280;11074;48.596;9.238;2024-01-25T09:14:37;99606.38;;;8.86;93.12
21824;BME280;11074;48.596;9.238;2024-01-25T09:17:03;99607.59;;;8.96;92.64
21824;BME280;11074;48.596;9.238;2024-01-25T09:19:28;99607.16;;;9.06;92.04
21824;BME280;11074;48.596;9.238;2024-01-25T09:21:53;99609.41;;;9.15;91.87
21824;BME280;11074;48.596;9.238;2024-01-25T09:24:19;99604.50;;;9.26;91.08
21824;BME280;11074;48.596;9.238;2024-01-25T09:26:44;99611.84;;;9.37;90.99
21824;BME280;11074;48.596;9.238;2024-01-25T09:29:09;99613.72;;;9.36;89.89
21824;BME280;11074;48.596;9.238;2024-01-25T09:31:34;99618.41;;;9.41;90.17
21824;BME280;11074;48.596;9.238;2024-01-25T09:34:00;99619.00;;;9.49;89.03
21824;BME280;11074;48.596;9.238;2024-01-25T09:36:25;99615.25;;;9.63;87.78
21824;BME280;11074;48.596;9.238;2024-01-25T09:38:50;99619.75;;;9.69;87.48
21824;BME280;11074;48.596;9.238;2024-01-25T09:41:16;99621.59;;;9.75;86.55
21824;BME280;11074;48.596;9.238;2024-01-25T09:43:41;99616.44;;;9.81;86.37
21824;BME280;11074;48.596;9.238;2024-01-25T09:46:07;99613.72;;;9.94;86.49
21824;BME280;11074;48.596;9.238;2024-01-25T09:48:32;99622.72;;;10.06;85.90
21824;BME280;11074;48.596;9.238;2024-01-25T09:50:58;99622.72;;;10.06;85.26
21824;BME280;11074;48.596;9.238;2024-01-25T09:53:24;99623.31;;;10.08;84.85
21824;BME280;11074;48.596;9.238;2024-01-25T09:56:22;99625.00;;;9.96;85.53
21824;BME280;11074;48.596;9.238;2024-01-25T09:58:48;99631.72;;;10.24;83.82
21824;BME280;11074;48.596;9.238;2024-01-25T10:01:15;99625.88;;;10.34;83.08
21824;BME280;11074;48.596;9.238;2024-01-25T10:03:46;99629.84;;;10.25;82.05
21824;BME280;11074;48.596;9.238;2024-01-25T10:06:13;99623.47;;;10.19;82.56
21824;BME280;11074;48.596;9.238;2024-01-25T10:08:39;99624.75;;;10.10;83.09
21824;BME280;11074;48.596;9.238;2024-01-25T10:11:05;99634.56;;;10.23;82.61
21824;BME280;11074;48.596;9.238;2024-01-25T10:13:30;99636.16;;;10.37;81.45
21824;BME280;11074;48.596;9.238;2024-01-25T10:15:56;99632.88;;;10.35;81.27
21824;BME280;11074;48.596;9.238;2024-01-25T10:18:23;99636.41;;;10.29;81.11
21824;BME280;11074;48.596;9.238;2024-01-25T10:20:48;99629.72;;;10.45;81.10
21824;BME280;11074;48.596;9.238;2024-01-25T10:23:14;99639.19;;;10.47;81.34
21824;BME280;11074;48.596;9.238;2024-01-25T10:25:39;99631.13;;;10.54;79.98
21824;BME280;11074;48.596;9.238;2024-01-25T10:28:05;99627.28;;;10.43;80.83
21824;BME280;11074;48.596;9.238;2024-01-25T10:30:35;99617.38;;;10.44;79.51
21824;BME280;11074;48.596;9.238;2024-01-25T10:33:03;99609.69;;;10.60;79.14
21824;BME280;11074;48.596;9.238;2024-01-25T10:35:30;99608.66;;;10.61;80.17
21824;BME280;11074;48.596;9.238;2024-01-25T10:37:56;99605.00;;;10.49;78.69
21824;BME280;11074;48.596;9.238;2024-01-25T10:40:22;99609.00;;;10.40;80.32
21824;BME280;11074;48.596;9.238;2024-01-25T10:42:47;99608.56;;;10.43;79.18
21824;BME280;11074;48.596;9.238;2024-01-25T10:45:14;99607.06;;;10.54;77.91
21824;BME280;11074;48.596;9.238;2024-01-25T10:47:40;99608.22;;;10.64;78.35
21824;BME280;11074;48.596;9.238;2024-01-25T10:50:11;99606.69;;;10.75;76.44
21824;BME280;11074;48.596;9.238;2024-01-25T10:52:39;99595.91;;;10.88;76.36
21824;BME280;11074;48.596;9.238;2024-01-25T10:55:05;99593.56;;;10.91;76.39
21824;BME280;11074;48.596;9.238;2024-01-25T10:57:42;99584.94;;;11.14;76.39
21824;BME280;11074;48.596;9.238;2024-01-25T11:00:10;99578.44;;;11.28;76.01
21824;BME280;11074;48.596;9.238;2024-01-25T11:02:36;99573.09;;;11.28;75.09
21824;BME280;11074;48.596;9.238;2024-01-25T11:05:01;99585.28;;;11.00;76.57
21824;BME280;11074;48.596;9.238;2024-01-25T11:07:28;99587.53;;;11.03;75.69
21824;BME280;11074;48.596;9.238;2024-01-25T11:09:54;99577.91;;;10.95;76.44
21824;BME280;11074;48.596;9.238;2024-01-25T11:12:20;99566.97;;;10.96;77.29
21824;BME280;11074;48.596;9.238;2024-01-25T11:14:54;99573.22;;;10.90;77.30
21824;BME280;11074;48.596;9.238;2024-01-25T11:17:20;99567.22;;;10.95;77.71
21824;BME280;11074;48.596;9.238;2024-01-25T11:19:46;99557.50;;;11.01;77.94
21824;BME280;11074;48.596;9.238;2024-01-25T11:22:12;99552.25;;;10.87;78.71
21824;BME280;11074;48.596;9.238;2024-01-25T11:24:38;99552.81;;;10.96;78.47
21824;BME280;11074;48.596;9.238;2024-01-25T11:27:04;99542.34;;;11.13;77.05
21824;BME280;11074;48.596;9.238;2024-01-25T11:29:30;99538.94;;;11.24;76.54
21824;BME280;11074;48.596;9.238;2024-01-25T11:31:55;99528.06;;;11.19;76.98
21824;BME280;11074;48.596;9.238;2024-01-25T11:34:22;99536.81;;;11.08;76.77
21824;BME280;11074;48.596;9.238;2024-01-25T11:36:47;99534.44;;;11.00;76.15
21824;BME280;11074;48.596;9.238;2024-01-25T11:39:14;99526.25;;;10.94;77.00
21824;BME280;11074;48.596;9.238;2024-01-25T11:41:41;99525.34;;;10.82;75.39
21824;BME280;11074;48.596;9.238;2024-01-25T11:44:07;99522.44;;;10.84;74.59
21824;BME280;11074;48.596;9.238;2024-01-25T11:46:35;99525.22;;;10.95;74.08
21824;BME280;11074;48.596;9.238;2024-01-25T11:49:00;99515.28;;;11.03;74.43
21824;BME280;11074;48.596;9.238;2024-01-25T11:51:26;99521.00;;;11.06;73.70
21824;BME280;11074;48.596;9.238;2024-01-25T11:53:51;99516.63;;;11.30;72.02
21824;BME280;11074;48.596;9.238;2024-01-25T11:56:19;99509.03;;;11.27;74.08
21824;BME280;11074;48.596;9.238;2024-01-25T11:58:46;99510.06;;;11.26;74.94
21824;BME280;11074;48.596;9.238;2024-01-25T12:01:12;99511.84;;;11.50;74.73
21824;BME280;11074;48.596;9.238;2024-01-25T12:03:39;99512.94;;;11.61;73.98
21824;BME280;11074;48.596;9.238;2024-01-25T12:06:05;99510.66;;;11.64;74.21
21824;BME280;11074;48.596;9.238;2024-01-25T12:08:33;99507.84;;;11.59;74.50
21824;BME280;11074;48.596;9.238;2024-01-25T12:11:09;99514.34;;;11.63;74.28
21824;BME280;11074;48.596;9.238;2024-01-25T12:13:43;99517.38;;;11.73;73.00
21824;BME280;11074;48.596;9.238;2024-01-25T12:16:10;99516.69;;;11.78;72.61
21824;BME280;11074;48.596;9.238;2024-01-25T12:18:36;99508.72;;;11.71;72.42
21824;BME280;11074;48.596;9.238;2024-01-25T12:21:03;99494.34;;;11.66;73.36
21824;BME280;11074;48.596;9.238;2024-01-25T12:23:32;99499.88;;;11.52;73.92
21824;BME280;11074;48.596;9.238;2024-01-25T12:26:03;99496.56;;;11.39;73.76
21824;BME280;11074;48.596;9.238;2024-01-25T12:28:30;99491.81;;;11.52;72.97
21824;BME280;11074;48.596;9.238;2024-01-25T12:30:56;99488.81;;;11.49;71.52
21824;BME280;11074;48.596;9.238;2024-01-25T12:33:22;99485.00;;;11.56;73.01
21824;BME280;11074;48.596;9.238;2024-01-25T12:35:47;99482.88;;;11.77;71.09
21824;BME280;11074;48.596;9.238;2024-01-25T12:38:12;99478.75;;;11.92;69.56
21824;BME280;11074;48.596;9.238;2024-01-25T12:40:38;99466.84;;;12.30;69.28
21824;BME280;11074;48.596;9.238;2024-01-25T12:43:03;99466.28;;;12.39;69.68
21824;BME280;11074;48.596;9.238;2024-01-25T12:45:28;99460.69;;;12.29;68.85
21824;BME280;11074;48.596;9.238;2024-01-25T12:47:54;99461.22;;;12.08;70.77
21824;BME280;11074;48.596;9.238;2024-01-25T12:50:19;99455.25;;;12.06;71.11
21824;BME280;11074;48.596;9.238;2024-01-25T12:52:45;99455.66;;;12.21;70.66
21824;BME280;11074;48.596;9.238;2024-01-25T12:55:11;99460.31;;;12.26;69.60
21824;BME280;11074;48.596;9.238;2024-01-25T12:57:37;99448.91;;;12.42;68.83
21824;BME280;11074;48.596;9.238;2024-01-25T13:00:02;99450.78;;;12.53;66.93